createdAt,value
2024-01-31T00:01:56.761Z,12.82
2024-01-31T00:04:29.500Z,16.77
2024-01-31T00:06:59.634Z,15.48
2024-01-31T00:09:29.720Z,13.55
2024-01-31T00:12:00.518Z,16.10
2024-01-31T00:14:30.535Z,13.60
2024-01-31T00:17:00.468Z,15.07
2024-01-31T00:19:32.994Z,15.77
2024-01-31T00:22:03.267Z,16.75
2024-01-31T00:24:33.248Z,13.55
2024-01-31T00:27:03.315Z,14.68
2024-01-31T00:29:36.162Z,12.98
2024-01-31T00:34:40.655Z,14.75
2024-01-31T00:37:10.758Z,15.27
2024-01-31T00:39:43.087Z,15.50
2024-01-31T00:42:13.120Z,17.17
2024-01-31T00:44:43.984Z,16.00
2024-01-31T00:47:11.746Z,14.35
2024-01-31T00:49:44.512Z,14.82
2024-01-31T00:52:14.561Z,16.10
2024-01-31T00:54:46.955Z,15.30
2024-01-31T00:57:18.726Z,16.52
2024-01-31T00:59:48.783Z,17.95
2024-01-31T01:02:19.786Z,16.45
2024-01-31T01:04:53.871Z,19.80
2024-01-31T01:07:23.959Z,17.05
2024-01-31T01:09:53.992Z,16.25
2024-01-31T01:12:23.898Z,16.80
2024-01-31T01:15:01.581Z,19.00
2024-01-31T01:17:35.752Z,18.33
2024-01-31T01:20:10.228Z,15.80
2024-01-31T01:22:40.543Z,17.83
2024-01-31T01:25:11.233Z,17.42
2024-01-31T01:27:41.354Z,16.45
2024-01-31T01:30:13.095Z,15.68
2024-01-31T01:32:43.167Z,14.30
2024-01-31T01:35:15.714Z,17.30
2024-01-31T01:37:46.228Z,16.38
2024-01-31T01:40:17.188Z,17.35
2024-01-31T01:42:48.088Z,16.63
2024-01-31T01:45:18.130Z,17.30
2024-01-31T01:47:54.001Z,16.05
2024-01-31T01:50:27.007Z,13.65
2024-01-31T01:52:57.128Z,14.30
2024-01-31T01:55:27.301Z,15.85
2024-01-31T01:57:59.130Z,18.40
2024-01-31T02:00:29.765Z,16.65
2024-01-31T02:02:59.855Z,15.30
2024-01-31T02:05:33.326Z,15.68
2024-01-31T02:08:04.417Z,14.15
2024-01-31T02:10:34.799Z,13.38
2024-01-31T02:13:05.157Z,12.48
2024-01-31T02:15:35.131Z,14.75
2024-01-31T02:18:05.385Z,12.32
2024-01-31T02:20:39.035Z,14.77
2024-01-31T02:23:11.779Z,12.27
2024-01-31T02:25:41.837Z,13.80
2024-01-31T02:28:11.954Z,14.23
2024-01-31T02:30:42.067Z,16.00
2024-01-31T02:33:12.295Z,16.35
2024-01-31T02:35:42.409Z,13.82
2024-01-31T02:38:14.923Z,19.08
2024-01-31T02:40:45.017Z,14.30
2024-01-31T02:43:15.157Z,16.70
2024-01-31T02:45:45.365Z,11.70
2024-01-31T02:48:15.485Z,11.55
2024-01-31T02:50:45.469Z,9.55
2024-01-31T02:53:17.953Z,11.13
2024-01-31T02:55:48.093Z,12.40
2024-01-31T02:58:18.417Z,12.52
2024-01-31T03:00:48.516Z,10.63
2024-01-31T03:03:18.466Z,11.90
2024-01-31T03:05:48.534Z,10.95
2024-01-31T03:08:21.197Z,14.10
2024-01-31T03:10:51.273Z,12.52
2024-01-31T03:13:21.294Z,12.73
2024-01-31T03:15:51.312Z,10.63
2024-01-31T03:18:21.437Z,14.02
2024-01-31T03:20:55.763Z,12.63
2024-01-31T03:25:58.493Z,13.30
2024-01-31T03:28:28.468Z,10.85
2024-01-31T03:30:58.482Z,11.75
2024-01-31T03:33:28.962Z,11.43
2024-01-31T03:35:59.103Z,10.50
2024-01-31T03:38:31.763Z,10.88
2024-01-31T03:41:01.778Z,12.15
2024-01-31T03:43:31.746Z,10.88
2024-01-31T03:46:01.739Z,12.20
2024-01-31T03:48:34.793Z,11.80
2024-01-31T03:51:05.226Z,13.32
2024-01-31T03:53:37.753Z,13.90
2024-01-31T03:56:09.872Z,14.02
2024-01-31T03:58:40.066Z,15.18
2024-01-31T04:01:10.289Z,14.35
2024-01-31T04:03:42.142Z,14.63
2024-01-31T04:06:12.453Z,16.55
2024-01-31T04:08:45.103Z,15.20
2024-01-31T04:11:15.827Z,16.63
2024-01-31T04:13:48.338Z,16.60
2024-01-31T04:16:19.549Z,17.95
2024-01-31T04:18:49.710Z,19.45
2024-01-31T04:21:23.610Z,14.82
2024-01-31T04:23:56.344Z,17.35
2024-01-31T04:26:26.278Z,15.65
2024-01-31T04:28:56.359Z,15.48
2024-01-31T04:31:26.473Z,17.88
2024-01-31T04:33:56.596Z,16.52
2024-01-31T04:36:26.554Z,13.73
2024-01-31T04:38:59.044Z,17.90
2024-01-31T04:41:29.225Z,15.05
2024-01-31T04:43:59.239Z,15.23
2024-01-31T04:46:29.283Z,17.25
2024-01-31T04:48:59.473Z,15.27
2024-01-31T04:51:29.899Z,19.05
2024-01-31T04:54:02.485Z,15.00
2024-01-31T04:56:34.093Z,14.48
2024-01-31T04:59:04.576Z,15.63
2024-01-31T05:01:34.655Z,15.07
2024-01-31T05:04:05.190Z,16.30
2024-01-31T05:06:35.324Z,15.77
2024-01-31T05:09:08.155Z,15.25
2024-01-31T05:11:38.179Z,12.65
2024-01-31T05:14:08.167Z,16.88
2024-01-31T05:16:40.725Z,14.60
2024-01-31T05:19:13.260Z,12.75
2024-01-31T05:21:48.078Z,14.15
2024-01-31T05:24:21.275Z,16.00
2024-01-31T05:26:52.127Z,15.32
2024-01-31T05:29:22.061Z,15.90
2024-01-31T05:31:52.079Z,14.57
2024-01-31T05:34:24.044Z,13.38
2024-01-31T05:36:54.264Z,12.75
2024-01-31T05:39:26.844Z,12.57
2024-01-31T05:41:56.825Z,14.93
2024-01-31T05:44:26.786Z,14.20
2024-01-31T05:46:56.841Z,13.40
2024-01-31T05:49:26.966Z,15.60
2024-01-31T05:51:57.194Z,15.95
2024-01-31T05:54:29.695Z,14.30
2024-01-31T05:56:59.681Z,13.25
2024-01-31T05:59:29.924Z,13.25
2024-01-31T06:02:01.038Z,14.98
2024-01-31T06:04:31.295Z,13.48
2024-01-31T06:07:01.360Z,19.23
2024-01-31T06:09:34.039Z,16.48
2024-01-31T06:12:03.989Z,15.25
2024-01-31T06:14:37.250Z,16.55
2024-01-31T06:17:07.564Z,15.38
2024-01-31T06:19:39.511Z,18.33
2024-01-31T06:22:09.658Z,14.45
2024-01-31T06:24:42.556Z,15.95
2024-01-31T06:27:12.543Z,17.65
2024-01-31T06:29:43.149Z,15.32
2024-01-31T06:32:13.495Z,14.38
2024-01-31T06:34:43.670Z,18.38
2024-01-31T06:37:13.712Z,19.90
2024-01-31T06:39:46.802Z,16.27
2024-01-31T06:42:16.867Z,16.52
2024-01-31T06:44:46.899Z,20.08
2024-01-31T06:47:17.142Z,17.65
2024-01-31T06:49:47.230Z,21.55
2024-01-31T06:52:17.290Z,20.88
2024-01-31T06:54:49.906Z,18.77
2024-01-31T06:57:20.125Z,18.17
2024-01-31T06:59:50.806Z,20.45
2024-01-31T07:02:20.754Z,19.90
2024-01-31T07:04:50.806Z,21.48
2024-01-31T07:07:21.063Z,20.42
2024-01-31T07:09:53.714Z,19.20
2024-01-31T07:12:23.647Z,21.55
2024-01-31T07:14:53.642Z,20.02
2024-01-31T07:17:24.272Z,20.23
2024-01-31T07:19:54.339Z,22.73
2024-01-31T07:22:24.443Z,21.50
2024-01-31T07:24:56.989Z,20.23
2024-01-31T07:27:27.027Z,19.60
2024-01-31T07:29:57.019Z,19.58
2024-01-31T07:32:27.017Z,20.25
2024-01-31T07:34:56.998Z,23.40
2024-01-31T07:37:27.062Z,22.80
2024-01-31T07:39:59.817Z,23.17
2024-01-31T07:42:30.297Z,23.23
2024-01-31T07:45:00.328Z,20.98
2024-01-31T07:47:30.574Z,23.17
2024-01-31T07:50:00.878Z,22.52
2024-01-31T07:52:30.924Z,22.75
2024-01-31T07:55:04.561Z,25.83
2024-01-31T07:57:34.893Z,21.77
2024-01-31T08:00:05.493Z,24.35
2024-01-31T08:02:36.439Z,26.88
2024-01-31T08:05:07.259Z,25.75
2024-01-31T08:07:40.104Z,23.58
2024-01-31T08:10:15.171Z,23.45
2024-01-31T08:12:45.717Z,24.42
2024-01-31T08:15:15.804Z,21.83
2024-01-31T08:17:45.845Z,20.90
2024-01-31T08:20:16.060Z,21.17
2024-01-31T08:22:46.144Z,22.58
2024-01-31T08:25:18.911Z,20.20
2024-01-31T08:27:50.177Z,21.60
2024-01-31T08:30:22.713Z,23.75
2024-01-31T08:32:52.947Z,19.38
2024-01-31T08:35:23.371Z,20.92
2024-01-31T08:37:55.581Z,22.52
2024-01-31T08:40:28.382Z,22.70
2024-01-31T08:42:59.798Z,21.25
2024-01-31T08:45:30.358Z,20.58
2024-01-31T08:48:00.869Z,22.35
2024-01-31T08:50:30.933Z,20.55
2024-01-31T08:53:01.053Z,22.55
2024-01-31T08:55:33.855Z,17.30
2024-01-31T08:58:04.017Z,23.88
2024-01-31T09:00:34.205Z,21.70
2024-01-31T09:03:04.854Z,23.60
2024-01-31T09:05:35.188Z,26.05
2024-01-31T09:08:06.483Z,21.13
2024-01-31T09:10:39.263Z,27.83
2024-01-31T09:13:09.389Z,26.20
2024-01-31T09:15:39.480Z,27.08
2024-01-31T09:18:10.063Z,24.83
2024-01-31T09:20:40.487Z,27.10
2024-01-31T09:23:10.480Z,30.73
2024-01-31T09:25:43.166Z,27.38
2024-01-31T09:28:13.360Z,30.25
2024-01-31T09:30:45.280Z,34.03
2024-01-31T09:33:15.681Z,31.33
2024-01-31T09:35:45.919Z,26.45
2024-01-31T09:38:15.924Z,31.30
2024-01-31T09:40:48.919Z,34.80
2024-01-31T09:43:19.163Z,29.13
2024-01-31T09:45:51.832Z,27.95
2024-01-31T09:48:23.349Z,26.77
2024-01-31T09:50:53.755Z,29.17
2024-01-31T09:53:26.029Z,25.73
2024-01-31T09:55:59.633Z,24.85
2024-01-31T09:58:30.531Z,23.80
2024-01-31T10:01:07.295Z,24.50
2024-01-31T10:03:45.845Z,32.97
2024-01-31T10:06:15.977Z,26.60
2024-01-31T10:08:46.029Z,26.27
2024-01-31T10:11:18.631Z,27.38
2024-01-31T10:13:48.809Z,23.75
2024-01-31T10:16:18.996Z,23.60
2024-01-31T10:18:49.154Z,25.35
2024-01-31T10:21:21.533Z,27.02
2024-01-31T10:24:00.127Z,21.88
2024-01-31T10:26:35.158Z,20.10
2024-01-31T10:29:09.884Z,25.40
2024-01-31T10:31:44.808Z,18.65
2024-01-31T10:34:19.932Z,23.15
2024-01-31T10:37:30.885Z,19.42
2024-01-31T10:39:41.548Z,18.55
2024-01-31T10:42:14.821Z,23.50
2024-01-31T10:44:48.141Z,18.23
2024-01-31T10:47:18.475Z,20.33
2024-01-31T10:49:48.597Z,18.70
2024-01-31T10:52:23.846Z,19.27
2024-01-31T10:54:58.496Z,19.65
2024-01-31T10:57:31.771Z,20.98
2024-01-31T11:00:04.045Z,18.38
2024-01-31T11:02:36.754Z,22.17
2024-01-31T11:05:07.775Z,19.35
2024-01-31T11:07:49.429Z,20.85
2024-01-31T11:10:22.246Z,26.17
2024-01-31T11:13:06.436Z,27.40
2024-01-31T11:15:38.314Z,22.35
2024-01-31T11:18:11.713Z,19.27
2024-01-31T11:20:44.016Z,18.20
2024-01-31T11:23:18.036Z,22.20
2024-01-31T11:25:49.662Z,15.70
2024-01-31T11:28:23.456Z,19.48
2024-01-31T11:30:54.262Z,21.55
2024-01-31T11:33:25.130Z,20.90
2024-01-31T11:35:55.266Z,23.27
2024-01-31T11:38:25.545Z,21.40
2024-01-31T11:40:56.240Z,20.63
2024-01-31T11:43:28.893Z,24.38
2024-01-31T11:45:59.153Z,19.38
2024-01-31T11:48:29.309Z,17.35
2024-01-31T11:50:59.773Z,21.40
2024-01-31T11:53:30.267Z,20.98
2024-01-31T11:56:00.379Z,19.20
2024-01-31T11:58:36.865Z,19.55
2024-01-31T12:01:07.672Z,24.05
2024-01-31T12:03:38.754Z,22.23
2024-01-31T12:06:09.902Z,21.95
2024-01-31T12:08:47.239Z,18.15
2024-01-31T12:11:17.573Z,19.90
2024-01-31T12:13:51.455Z,19.77
2024-01-31T12:16:21.504Z,24.27
2024-01-31T12:19:02.711Z,23.00
2024-01-31T12:21:43.088Z,28.52
2024-01-31T12:24:13.504Z,24.05
2024-01-31T12:26:44.423Z,25.73
2024-01-31T12:29:17.074Z,21.52
2024-01-31T12:31:47.065Z,29.50
2024-01-31T12:34:17.269Z,25.88
2024-01-31T12:36:47.401Z,20.45
2024-01-31T12:39:20.697Z,26.83
2024-01-31T12:41:53.596Z,32.35
2024-01-31T12:44:28.178Z,28.15
2024-01-31T12:46:58.821Z,26.60
2024-01-31T12:49:32.196Z,24.05
2024-01-31T12:52:02.191Z,24.45
2024-01-31T12:54:32.193Z,22.63
2024-01-31T12:57:02.524Z,24.65
2024-01-31T12:59:35.292Z,24.65
2024-01-31T13:02:05.668Z,27.73
2024-01-31T13:04:35.903Z,27.13
2024-01-31T13:07:06.509Z,29.15
2024-01-31T13:09:36.834Z,26.23
2024-01-31T13:12:10.940Z,23.83
2024-01-31T13:14:45.978Z,27.08
2024-01-31T13:17:16.185Z,25.85
2024-01-31T13:19:46.264Z,29.35
2024-01-31T13:22:16.350Z,24.35
2024-01-31T13:24:46.677Z,25.88
2024-01-31T13:27:16.889Z,27.23
2024-01-31T13:29:49.641Z,26.83
2024-01-31T13:32:20.649Z,29.13
2024-01-31T13:34:50.715Z,28.17
2024-01-31T13:37:20.845Z,26.45
2024-01-31T13:39:50.858Z,24.88
2024-01-31T13:42:20.948Z,28.42
2024-01-31T13:44:53.995Z,26.52
2024-01-31T13:47:24.677Z,28.20
2024-01-31T13:49:54.785Z,30.23
2024-01-31T13:52:24.739Z,28.80
2024-01-31T13:54:54.711Z,26.20
2024-01-31T13:57:24.963Z,29.58
2024-01-31T13:59:58.487Z,27.35
2024-01-31T14:02:28.756Z,25.50
2024-01-31T14:04:58.853Z,24.85
2024-01-31T14:07:28.855Z,29.80
2024-01-31T14:09:56.330Z,28.33
2024-01-31T14:12:26.284Z,25.20
2024-01-31T14:15:01.268Z,27.70
2024-01-31T14:17:31.643Z,27.00
2024-01-31T14:20:01.734Z,26.13
2024-01-31T14:25:05.418Z,28.30
2024-01-31T14:27:35.590Z,28.58
2024-01-31T14:30:09.547Z,30.45
2024-01-31T14:32:39.714Z,33.05
2024-01-31T14:35:10.305Z,28.45
2024-01-31T14:37:40.245Z,25.67
2024-01-31T14:40:11.789Z,30.65
2024-01-31T14:42:42.641Z,31.65
2024-01-31T14:45:15.681Z,32.15
2024-01-31T14:47:45.971Z,31.05
2024-01-31T14:50:15.992Z,32.47
2024-01-31T14:52:45.984Z,33.15
2024-01-31T14:55:16.003Z,30.13
2024-01-31T14:57:45.972Z,55.88
2024-01-31T15:00:19.789Z,34.20
2024-01-31T15:02:49.770Z,28.35
2024-01-31T15:05:20.246Z,31.02
2024-01-31T15:07:50.256Z,25.75
2024-01-31T15:10:20.891Z,28.52
2024-01-31T15:12:53.373Z,28.02
2024-01-31T15:15:26.118Z,31.45
2024-01-31T15:17:56.954Z,25.42
2024-01-31T15:20:27.458Z,28.17
2024-01-31T15:22:57.736Z,28.15
2024-01-31T15:25:27.820Z,24.33
2024-01-31T15:27:57.859Z,26.42
2024-01-31T15:30:30.806Z,28.70
2024-01-31T15:33:01.082Z,24.77
2024-01-31T15:35:31.105Z,30.20
2024-01-31T15:38:01.289Z,27.85
2024-01-31T15:40:32.195Z,28.73
2024-01-31T15:43:02.196Z,29.55
2024-01-31T15:45:34.754Z,27.33
2024-01-31T15:48:04.882Z,28.95
2024-01-31T15:50:34.954Z,29.27
2024-01-31T15:53:05.353Z,31.63
2024-01-31T15:55:35.383Z,33.33
2024-01-31T15:58:05.403Z,28.13
2024-01-31T16:00:38.193Z,31.55
2024-01-31T16:03:08.649Z,29.17
2024-01-31T16:05:38.955Z,31.90
2024-01-31T16:08:09.344Z,28.95
2024-01-31T16:10:39.345Z,30.77
2024-01-31T16:13:09.637Z,32.80
2024-01-31T16:15:44.238Z,30.60
2024-01-31T16:18:16.280Z,31.30
2024-01-31T16:20:47.517Z,34.08
2024-01-31T16:23:19.048Z,39.00
2024-01-31T16:25:49.008Z,31.55
2024-01-31T16:28:19.228Z,30.52
2024-01-31T16:30:56.587Z,35.67
2024-01-31T16:33:27.400Z,33.45
2024-01-31T16:35:58.920Z,28.90
2024-01-31T16:38:29.138Z,31.35
2024-01-31T16:40:59.123Z,39.22
2024-01-31T16:43:29.109Z,31.38
2024-01-31T16:46:01.704Z,35.97
2024-01-31T16:48:31.812Z,31.38
2024-01-31T16:51:01.914Z,33.80
2024-01-31T16:53:31.959Z,34.55
2024-01-31T16:56:02.200Z,34.58
2024-01-31T16:58:32.328Z,34.42
2024-01-31T17:01:05.362Z,36.80
2024-01-31T17:03:37.216Z,30.73
2024-01-31T17:06:08.445Z,28.98
2024-01-31T17:08:39.264Z,33.95
2024-01-31T17:11:09.400Z,34.65
2024-01-31T17:13:39.425Z,40.15
2024-01-31T17:16:13.484Z,32.95
2024-01-31T17:18:43.688Z,36.50
2024-01-31T17:21:13.857Z,39.80
2024-01-31T17:23:44.006Z,33.60
2024-01-31T17:26:14.168Z,38.88
2024-01-31T17:28:44.138Z,36.60
2024-01-31T17:31:17.263Z,30.17
2024-01-31T17:33:48.115Z,37.22
2024-01-31T17:36:21.137Z,35.70
2024-01-31T17:38:51.181Z,32.00
2024-01-31T17:41:22.607Z,31.98
2024-01-31T17:43:52.598Z,36.15
2024-01-31T17:46:26.550Z,34.80
2024-01-31T17:48:56.720Z,35.47
2024-01-31T17:51:27.225Z,35.83
2024-01-31T17:53:57.352Z,31.90
2024-01-31T17:56:27.531Z,37.88
2024-01-31T17:58:57.639Z,38.30
2024-01-31T18:01:30.206Z,35.88
2024-01-31T18:04:00.209Z,33.45
2024-01-31T18:06:30.514Z,38.53
2024-01-31T18:09:04.945Z,45.55
2024-01-31T18:11:36.022Z,36.58
2024-01-31T18:14:06.082Z,36.00
2024-01-31T18:16:38.604Z,37.35
2024-01-31T18:19:08.686Z,34.72
2024-01-31T18:21:39.145Z,34.65
2024-01-31T18:24:10.240Z,37.58
2024-01-31T18:26:40.318Z,36.15
2024-01-31T18:29:10.361Z,35.72
2024-01-31T18:31:46.755Z,38.10
2024-01-31T18:34:16.890Z,37.28
2024-01-31T18:36:50.473Z,37.30
2024-01-31T18:39:20.817Z,35.23
2024-01-31T18:41:50.814Z,38.35
2024-01-31T18:44:20.846Z,36.42
2024-01-31T18:46:54.423Z,32.33
2024-01-31T18:49:24.561Z,35.63
2024-01-31T18:51:54.970Z,38.13
2024-01-31T18:54:24.956Z,37.67
2024-01-31T18:56:55.032Z,42.15
2024-01-31T18:59:25.209Z,33.33
2024-01-31T19:02:01.771Z,36.13
2024-01-31T19:04:33.015Z,35.55
2024-01-31T19:07:04.034Z,35.05
2024-01-31T19:09:35.032Z,42.40
2024-01-31T19:12:05.770Z,42.08
2024-01-31T19:14:36.686Z,35.72
2024-01-31T19:17:18.728Z,37.92
2024-01-31T19:19:56.456Z,32.35
2024-01-31T19:22:29.509Z,34.47
2024-01-31T19:25:03.141Z,28.42
2024-01-31T19:27:34.353Z,32.33
2024-01-31T19:30:07.793Z,28.73
2024-01-31T19:32:42.664Z,27.55
2024-01-31T19:35:13.960Z,27.02
2024-01-31T19:37:44.393Z,28.85
2024-01-31T19:40:16.050Z,24.00
2024-01-31T19:42:46.253Z,22.17
2024-01-31T19:45:16.491Z,30.15
2024-01-31T19:47:49.633Z,26.33
2024-01-31T19:50:21.175Z,27.08
2024-01-31T19:52:51.545Z,30.90
2024-01-31T19:55:23.526Z,25.83
2024-01-31T19:57:54.422Z,28.02
2024-01-31T20:00:25.918Z,31.30
2024-01-31T20:02:59.279Z,32.97
2024-01-31T20:05:31.078Z,25.73
2024-01-31T20:08:03.497Z,27.00
2024-01-31T20:10:34.405Z,29.45
2024-01-31T20:13:05.340Z,28.95
2024-01-31T20:15:36.390Z,24.90
2024-01-31T20:18:11.532Z,23.95
2024-01-31T20:20:44.361Z,25.15
2024-01-31T20:23:16.834Z,26.42
2024-01-31T20:25:47.607Z,20.52
2024-01-31T20:28:18.766Z,27.23
2024-01-31T20:30:49.770Z,18.88
2024-01-31T20:33:22.675Z,21.33
2024-01-31T20:35:53.563Z,18.38
2024-01-31T20:38:24.533Z,17.10
2024-01-31T20:40:55.054Z,22.20
2024-01-31T20:43:25.595Z,22.30
2024-01-31T20:45:59.065Z,20.77
2024-01-31T20:48:39.838Z,20.17
2024-01-31T20:51:11.841Z,21.30
2024-01-31T20:53:42.820Z,21.02
2024-01-31T20:56:20.475Z,21.27
2024-01-31T20:58:51.298Z,20.40
2024-01-31T21:01:22.513Z,20.45
2024-01-31T21:03:56.558Z,23.05
2024-01-31T21:06:28.104Z,19.70
2024-01-31T21:09:00.020Z,24.00
2024-01-31T21:11:34.797Z,17.70
2024-01-31T21:14:08.655Z,20.00
2024-01-31T21:16:44.012Z,18.73
2024-01-31T21:19:18.776Z,20.10
2024-01-31T21:21:49.827Z,18.67
2024-01-31T21:24:20.538Z,18.00
2024-01-31T21:26:51.684Z,18.05
2024-01-31T21:29:22.816Z,20.08
2024-01-31T21:31:53.463Z,17.95
2024-01-31T21:34:30.552Z,15.85
2024-01-31T21:37:01.514Z,16.20
2024-01-31T21:39:32.645Z,14.60
2024-01-31T21:42:03.693Z,13.80
2024-01-31T21:44:36.490Z,13.32
2024-01-31T21:47:08.322Z,14.02
2024-01-31T21:49:41.761Z,19.65
2024-01-31T21:52:13.062Z,14.80
2024-01-31T21:54:46.801Z,12.52
2024-01-31T21:57:18.058Z,15.05
2024-01-31T21:59:49.460Z,15.23
2024-01-31T22:02:20.427Z,14.65
2024-01-31T22:04:53.931Z,15.38
2024-01-31T22:07:27.620Z,17.15
2024-01-31T22:09:58.544Z,18.98
2024-01-31T22:12:29.536Z,14.55
2024-01-31T22:15:02.364Z,14.75
2024-01-31T22:17:35.111Z,19.80
2024-01-31T22:20:10.527Z,15.93
2024-01-31T22:22:41.473Z,16.92
2024-01-31T22:25:12.846Z,14.40
2024-01-31T22:27:45.260Z,15.13
2024-01-31T22:30:17.449Z,12.73
2024-01-31T22:32:48.887Z,10.32
2024-01-31T22:35:22.571Z,11.45
2024-01-31T22:37:54.117Z,10.57
2024-01-31T22:40:25.611Z,11.65
2024-01-31T22:42:58.457Z,12.38
2024-01-31T22:45:29.930Z,10.30
2024-01-31T22:48:05.414Z,12.48
2024-01-31T22:50:38.995Z,10.13
2024-01-31T22:53:10.169Z,10.07
2024-01-31T22:55:41.577Z,9.55
2024-01-31T22:58:12.489Z,7.25
2024-01-31T23:00:43.510Z,10.50
2024-01-31T23:03:15.192Z,8.00
2024-01-31T23:05:49.802Z,7.15
2024-01-31T23:10:52.421Z,4.43
2024-01-31T23:13:23.763Z,4.82
2024-01-31T23:15:55.380Z,6.47
2024-01-31T23:18:26.812Z,3.22
2024-01-31T23:21:02.313Z,4.10
2024-01-31T23:23:33.499Z,5.28
2024-01-31T23:26:05.318Z,4.40
2024-01-31T23:28:36.531Z,5.22
2024-01-31T23:31:10.243Z,4.55
2024-01-31T23:33:40.946Z,4.50
2024-01-31T23:36:13.847Z,2.78
2024-01-31T23:38:43.945Z,3.70
2024-01-31T23:41:14.094Z,4.28
2024-01-31T23:43:44.135Z,4.75
2024-01-31T23:46:20.371Z,6.40
2024-01-31T23:48:52.031Z,3.35
2024-01-31T23:51:25.108Z,5.30
2024-01-31T23:53:55.224Z,5.80
2024-01-31T23:56:26.097Z,3.90
2024-01-31T23:58:56.943Z,4.65
